TMW weather

Tamworth Airport
Tamworth, New South Wales, Australia

Public forecast

Using degrees Celsius for public forecast. Weather courtesy of forecast.io.

METAR (pilot weather report)

Retrieved 2018/01/21 16:30 UTC (16 minutes ago):

YSTW 211630Z AUTO 20004KT 170V230 9999 // NCD 20/11 Q1012 RF00.0/000.0

TAF (pilot weather forecast)

Retrieved 2018/01/21 12:36 UTC (4 hours ago):

TAF YSTW 211052Z 2112/2206 08010KT CAVOK FM212200 30007KT CAVOK FM220300 20005KT CAVOK